»·PEaware :: NJE119Y ESMT-EGWU

NJE119Y :: ESMT-EGWU

FLIGHT INFORMATION

Flight Status: Arrived
Operator:
Netjets
More flights by this operator :: More flights under this callsign
Pilot: Charles S. (11412)
Aircraft: BOMBARDIER BD-100 CHALLENGER 300
(CL30)
More flights by this aircraft type
Origin: ESMT Halmstad AB
Sweden
Destination: EGWU Northolt AB
United Kingdom
More flights between these airports :: More routes between these airports
Route: SVD N872 DEMIR UN872 DEGUL DHE SOMPO UP999 EEL UN125 SPY UZ701 GORLO UM20 RINIS M20 IDESI P7 LOGAN UL980 LAM BOVA1E
File this flight plan on PilotEdge
Remarks:
Altitude:
(Current/Filed)
43,000ft
Speed:
(Current/Filed)
270kts
Departed: 29-Sep-18 06:25 PM
Arrived: 29-Sep-18 08:27 PM
Distance/Time
Traveled:
557nm/2:02
Distance/Time
To Go:
Arrived

Flight Plot

Page will automatically refresh every two minutes.

Flight plan parsing failed; only flown route is shown


Map Options




Map Legend


Flown Route
Filed Route
Departure Airport
Arrival Airport
Navaid (VOR, NDB)
Fix

Horizontal Profiles

Position Reports

Time Latitude Longitude Heading Altitude Ground
Speed
29-Sep-18 18:26 56.688790 12.819764 3 83ft 143kts
29-Sep-18 18:27 56.706744 12.777814 217 3748ft 180kts
29-Sep-18 18:28 56.654017 12.785471 200 7023ft 200kts
29-Sep-18 18:29 56.600378 12.762143 200 10021ft 266kts
29-Sep-18 18:30 56.524566 12.729183 200 13240ft 290kts
29-Sep-18 18:31 56.445695 12.694646 201 16420ft 301kts
29-Sep-18 18:32 56.363512 12.658594 202 19604ft 313kts
29-Sep-18 18:33 56.277956 12.621171 203 22781ft 327kts
29-Sep-18 18:34 56.189267 12.581695 211 25926ft 332kts
29-Sep-18 18:35 56.127033 12.474821 235 29111ft 310kts
29-Sep-18 18:36 56.071546 12.361933 236 32233ft 297kts
29-Sep-18 18:37 56.021140 12.256499 237 35337ft 272kts
29-Sep-18 18:38 55.976064 12.161593 238 38423ft 231kts
29-Sep-18 18:39 55.941088 12.088203 242 41264ft 157kts
29-Sep-18 18:40 55.936190 12.070816 269 41079ft 167kts
29-Sep-18 18:41 55.924471 12.026742 237 40088ft 232kts
29-Sep-18 18:42 55.878951 11.944844 235 40673ft 255kts
29-Sep-18 18:43 55.826992 11.842995 235 40678ft 304kts
29-Sep-18 18:44 55.767329 11.721539 235 40706ft 348kts
29-Sep-18 18:45 55.702161 11.587346 235 41218ft 374kts
29-Sep-18 18:46 55.632294 11.443498 235 41710ft 396kts
29-Sep-18 18:47 55.560725 11.296927 234 42184ft 398kts
29-Sep-18 18:48 55.488857 11.150475 234 42695ft 397kts
29-Sep-18 18:49 55.417181 11.005282 234 43143ft 398kts
29-Sep-18 18:50 55.345273 10.860465 234 43145ft 391kts
29-Sep-18 18:51 55.274653 10.719137 234 43175ft 388kts
29-Sep-18 18:52 55.203803 10.578149 233 43193ft 390kts
29-Sep-18 18:53 55.132263 10.436639 233 43191ft 389kts
29-Sep-18 18:54 55.060782 10.296063 233 43202ft 390kts
29-Sep-18 18:55 54.988687 10.155063 233 43158ft 397kts
29-Sep-18 18:56 54.913697 10.009274 232 43100ft 411kts
29-Sep-18 18:57 54.839294 9.858470 233 43101ft 418kts
29-Sep-18 18:58 54.764938 9.707596 233 43068ft 416kts
29-Sep-18 18:59 54.690502 9.557394 233 42996ft 416kts
29-Sep-18 19:00 54.626694 9.394926 245 42995ft 410kts
29-Sep-18 19:01 54.575594 9.221080 245 43002ft 410kts
29-Sep-18 19:02 54.524688 9.046452 245 43001ft 409kts
29-Sep-18 19:03 54.474240 8.874029 245 42998ft 403kts
29-Sep-18 19:04 54.423724 8.702581 245 43113ft 403kts
29-Sep-18 19:05 54.373041 8.531731 245 43177ft 404kts
29-Sep-18 19:06 54.322094 8.361215 245 43175ft 403kts
29-Sep-18 19:07 54.272704 8.197017 243 43152ft 388kts
29-Sep-18 19:08 54.223172 8.033555 243 43166ft 391kts
29-Sep-18 19:09 54.160465 7.886309 223 43182ft 400kts
29-Sep-18 19:10 54.072817 7.771693 222 43176ft 401kts
29-Sep-18 19:11 53.983215 7.659317 221 43174ft 401kts
29-Sep-18 19:12 53.894183 7.549270 221 43175ft 402kts
29-Sep-18 19:13 53.803747 7.438353 221 43178ft 402kts
29-Sep-18 19:14 53.713980 7.328917 220 43187ft 402kts
29-Sep-18 19:15 53.623361 7.219021 220 43185ft 402kts
29-Sep-18 19:16 53.532698 7.109670 220 43184ft 400kts
29-Sep-18 19:17 53.443162 7.002263 220 43182ft 396kts
29-Sep-18 19:18 53.354195 6.895207 220 43180ft 394kts
29-Sep-18 19:19 53.265413 6.788145 220 43177ft 395kts
29-Sep-18 19:20 53.178003 6.679118 228 43174ft 390kts
29-Sep-18 19:21 53.120214 6.529777 240 43173ft 387kts
29-Sep-18 19:22 53.066538 6.372823 240 43172ft 398kts
29-Sep-18 19:23 53.012841 6.214276 239 43178ft 411kts
29-Sep-18 19:24 52.955874 6.046478 239 43122ft 423kts
29-Sep-18 19:25 52.898313 5.877910 239 43110ft 423kts
29-Sep-18 19:26 52.840644 5.710106 239 43119ft 423kts
29-Sep-18 19:27 52.782576 5.542262 239 43101ft 423kts
29-Sep-18 19:28 52.724347 5.375078 239 43126ft 423kts
29-Sep-18 19:29 52.666338 5.209622 238 43158ft 423kts
29-Sep-18 19:30 52.609261 5.047824 238 43160ft 422kts
29-Sep-18 19:31 52.551038 4.883804 238 43168ft 421kts
29-Sep-18 19:32 52.492687 4.719665 238 43177ft 420kts
29-Sep-18 19:33 52.488360 4.707500 238 43178ft 420kts
29-Sep-18 19:34 52.488360 4.707500 238 43178ft 420kts
29-Sep-18 19:35 52.488360 4.707500 238 43178ft 420kts
29-Sep-18 19:36 52.488360 4.707500 238 43178ft 420kts
29-Sep-18 19:37 52.488360 4.707500 238 43178ft 420kts
29-Sep-18 19:38 52.488360 4.707500 238 43178ft 420kts
29-Sep-18 19:39 52.488360 4.707500 238 43178ft 420kts
29-Sep-18 19:40 52.488360 4.707500 238 43178ft 420kts
29-Sep-18 19:41 52.488360 4.707500 238 43178ft 420kts
29-Sep-18 19:42 52.488360 4.707500 238 43178ft 420kts
29-Sep-18 19:43 52.488360 4.707500 238 43178ft 420kts
29-Sep-18 19:44 52.488360 4.707500 238 43178ft 420kts
29-Sep-18 19:45 52.439942 4.572033 238 43179ft 420kts
29-Sep-18 19:46 52.381134 4.408438 238 43122ft 421kts
29-Sep-18 19:47 52.322125 4.245345 237 43009ft 420kts
29-Sep-18 19:48 52.262763 4.082315 237 42998ft 420kts
29-Sep-18 19:49 52.203135 3.919621 237 42997ft 420kts
29-Sep-18 19:50 52.143282 3.757351 237 42995ft 420kts
29-Sep-18 19:51 52.082866 3.594591 237 42994ft 420kts
29-Sep-18 19:52 52.032601 3.459988 237 43081ft 420kts
29-Sep-18 19:53 51.962103 3.272394 236 43179ft 421kts
29-Sep-18 19:54 51.926921 3.128404 260 43180ft 429kts
29-Sep-18 19:55 51.920358 2.904450 263 43149ft 428kts
29-Sep-18 19:56 51.917073 2.744711 263 43109ft 427kts
29-Sep-18 19:57 51.913166 2.551272 264 41609ft 436kts
29-Sep-18 19:58 51.909067 2.356838 264 39577ft 421kts
29-Sep-18 19:59 51.905732 2.208882 263 38076ft 393kts
29-Sep-18 20:00 51.901757 2.043276 262 36419ft 376kts
29-Sep-18 20:01 51.885554 1.884494 240 34798ft 372kts
29-Sep-18 20:02 51.822727 1.752967 229 33145ft 374kts
29-Sep-18 20:03 51.759033 1.619670 246 31437ft 383kts
29-Sep-18 20:04 51.739928 1.450531 259 29722ft 391kts
29-Sep-18 20:05 51.727268 1.285087 260 28065ft 396kts
29-Sep-18 20:06 51.715190 1.111333 261 26373ft 385kts
29-Sep-18 20:07 51.703511 0.943610 262 24830ft 373kts
29-Sep-18 20:08 51.692214 0.781608 262 23256ft 364kts
29-Sep-18 20:09 51.680874 0.622125 263 21675ft 357kts
29-Sep-18 20:10 51.669417 0.465633 263 20120ft 350kts
29-Sep-18 20:11 51.658426 0.316392 262 18566ft 346kts
29-Sep-18 20:12 51.647482 0.165081 269 16921ft 340kts
29-Sep-18 20:13 51.655382 0.014961 274 15440ft 335kts
29-Sep-18 20:14 51.664136 -0.132150 275 13974ft 329kts
29-Sep-18 20:15 51.672851 -0.276906 275 12532ft 324kts
29-Sep-18 20:16 51.681381 -0.420264 276 11108ft 320kts
29-Sep-18 20:17 51.689212 -0.554352 276 9913ft 263kts
29-Sep-18 20:18 51.695798 -0.668565 276 8854ft 258kts
29-Sep-18 20:19 51.745836 -0.702431 45 7455ft 271kts
29-Sep-18 20:20 51.739296 -0.587932 123 6219ft 273kts
29-Sep-18 20:21 51.704283 -0.485059 113 5007ft 242kts
29-Sep-18 20:22 51.677584 -0.393992 114 3822ft 225kts
29-Sep-18 20:23 51.651363 -0.306542 115 2649ft 219kts
29-Sep-18 20:24 51.613260 -0.244190 158 1678ft 189kts
29-Sep-18 20:25 51.579676 -0.282028 254 1593ft 177kts
29-Sep-18 20:26 51.568138 -0.352251 251 1071ft 138kts
29-Sep-18 20:27 51.563959 -0.370819 249 741ft 127kts
29-Sep-18 20:28 51.555762 -0.406171 252 185ft 111kts
29-Sep-18 20:29 51.550134 -0.428043 149 121ft 11kts
29-Sep-18 20:30 51.550096 -0.421941 69 116ft 22kts

Navigation Log

Ident Type
Flight plan parsing failed, navigation log unavailable